CheckWX is a tool to help pilots better visualize weather data.  It is not intended as a substitute for an official pre-flight weather briefing.

04:12:54 UTC

KTVC TAF
Cherry Capital Airport
Traverse City, Michigan, USA
KTVC 232336Z 2400/2424 09003KT 2SM -SN FEW010 OVC040 FM240600 VRB04KT P6SM VCSH OVC021 FM241300 09005KT 6SM -SNRA OVC018 FM241900 07010G18KT P6SM OVC014 FM242200 08010G18KT 6SM -SNRA OVC026

Jan-24@
00:00 UTC

Jan-24 @ 00:00 UTC

Jan-24@
06:00 UTC

Jan-24 @ 06:00 UTC

KTVC 232336Z 2400/2424 09003KT 2SM -SN FEW010 OVC040
Wind
  • 090° at 3 KTS
Conditions
Light Snow
Cloud Levels
  • Few at 1,000' AGL
  • Overcast at 4,000' AGL

Jan-24@
06:00 UTC

Jan-24 @ 06:00 UTC

Jan-24@
13:00 UTC

Jan-24 @ 13:00 UTC

FM240600 VRB04KT P6SM VCSH OVC021

From

From Standard forecast or significant change

Wind
  • Variable at 4 KTS
Cloud Levels
  • Overcast at 2,100' AGL

Jan-24@
13:00 UTC

Jan-24 @ 13:00 UTC

Jan-24@
19:00 UTC

Jan-24 @ 19:00 UTC

FM241300 09005KT 6SM -SNRA OVC018

From

From Standard forecast or significant change

Wind
  • 090° at 5 KTS
Conditions
Light Snow, Light Rain
Cloud Levels
  • Overcast at 1,800' AGL

Jan-24@
19:00 UTC

Jan-24 @ 19:00 UTC

Jan-24@
22:00 UTC

Jan-24 @ 22:00 UTC

FM241900 07010G18KT P6SM OVC014

From

From Standard forecast or significant change

Wind
  • 070° at 10 KTS
  • {Gusting to 18 KTS
Cloud Levels
  • Overcast at 1,400' AGL

Jan-24@
22:00 UTC

Jan-24 @ 22:00 UTC

Jan-25@
00:00 UTC

Jan-25 @ 00:00 UTC

FM242200 08010G18KT 6SM -SNRA OVC026

From

From Standard forecast or significant change

Wind
  • 080° at 10 KTS
  • {Gusting to 18 KTS
Conditions
Light Snow, Light Rain
Cloud Levels
  • Overcast at 2,600' AGL